Time;durP1;ratioP1;P1;durP2;ratioP2;P2;SDS_P1;SDS_P2;PMS_P1;PMS_P2;Temp;Humidity;BMP_temperature;BMP_pressure;BME280_temperature;BME280_humidity;BME280_pressure;Samples;Min_cycle;Max_cycle;Signal;HPM_P1;HPM_P2
2021/05/05 00:02:12;;;;;;;1.65;1.25;;;8.30;94.10;;;;;;4975799;28;20582;-76
2021/05/05 00:04:39;;;;;;;2.25;1.38;;;8.30;95.00;;;;;;4985103;28;20242;-76
2021/05/05 00:07:06;;;;;;;4.15;1.45;;;8.40;94.40;;;;;;4995012;28;20297;-76
2021/05/05 00:09:35;;;;;;;3.55;1.60;;;8.40;94.00;;;;;;4960817;28;20687;-76
2021/05/05 00:12:01;;;;;;;1.83;1.20;;;8.40;93.60;;;;;;4992994;28;20221;-76
2021/05/05 00:14:28;;;;;;;3.88;1.55;;;8.50;93.70;;;;;;4992356;28;20242;-76
2021/05/05 00:16:54;;;;;;;1.92;1.50;;;8.50;93.60;;;;;;4946804;28;20305;-76
2021/05/05 00:19:21;;;;;;;3.00;1.70;;;8.50;93.80;;;;;;4986725;28;20222;-76
2021/05/05 00:21:48;;;;;;;2.10;1.50;;;8.50;93.50;;;;;;4977079;28;20187;-76
2021/05/05 00:24:14;;;;;;;1.42;1.33;;;8.50;93.30;;;;;;4960628;28;20648;-76
2021/05/05 00:26:41;;;;;;;1.80;1.42;;;8.40;93.30;;;;;;4984962;28;20219;-76
2021/05/05 00:29:08;;;;;;;1.80;1.70;;;8.50;93.60;;;;;;4969554;28;21004;-76
2021/05/05 00:31:35;;;;;;;3.35;1.55;;;8.50;93.00;;;;;;4975158;28;20198;-76
2021/05/05 00:34:02;;;;;;;2.53;1.35;;;8.50;92.70;;;;;;4969473;28;20215;-76
2021/05/05 00:36:29;;;;;;;1.92;1.65;;;8.50;92.80;;;;;;4976235;28;20269;-76
2021/05/05 00:38:55;;;;;;;2.95;1.40;;;8.50;92.70;;;;;;4993319;28;20230;-76
2021/05/05 00:41:22;;;;;;;1.65;1.20;;;8.50;92.60;;;;;;4978688;28;20544;-76
2021/05/05 00:43:48;;;;;;;1.77;1.50;;;8.50;93.00;;;;;;4945098;28;20213;-76
2021/05/05 00:46:15;;;;;;;3.17;1.65;;;8.40;93.40;;;;;;4975909;28;20210;-76
2021/05/05 00:48:42;;;;;;;1.80;1.70;;;8.40;95.20;;;;;;4975746;28;20215;-78
2021/05/05 00:51:08;;;;;;;2.60;1.70;;;8.30;98.60;;;;;;4974284;28;20286;-78
2021/05/05 00:53:35;;;;;;;2.75;2.25;;;8.10;99.90;;;;;;4973129;28;20627;-78
2021/05/05 00:56:02;;;;;;;3.08;1.80;;;8.00;99.90;;;;;;4963643;28;20203;-78
2021/05/05 00:58:31;;;;;;;3.10;1.90;;;8.00;99.90;;;;;;4976423;28;20223;-78
2021/05/05 01:01:01;;;;;;;4.85;1.77;;;8.00;99.90;;;;;;4987950;28;20592;-78
2021/05/05 01:03:29;;;;;;;3.97;2.13;;;8.00;99.90;;;;;;4973723;28;20292;-78
2021/05/05 01:05:55;;;;;;;4.25;2.05;;;8.00;99.90;;;;;;4971023;28;20298;-78
2021/05/05 01:08:22;;;;;;;2.58;1.88;;;8.00;99.90;;;;;;4982086;28;20616;-78
2021/05/05 01:10:51;;;;;;;5.18;1.98;;;7.90;99.90;;;;;;4974599;28;20183;-77
2021/05/05 01:13:19;;;;;;;3.75;2.28;;;7.90;99.90;;;;;;4951384;28;20218;-77
2021/05/05 01:15:47;;;;;;;3.50;1.88;;;7.80;99.90;;;;;;4948150;28;20558;-77
2021/05/05 01:18:14;;;;;;;2.72;1.80;;;7.80;99.90;;;;;;4971595;28;20222;-77
2021/05/05 01:20:41;;;;;;;3.17;2.00;;;7.70;99.90;;;;;;4983718;28;20191;-77
2021/05/05 01:23:08;;;;;;;2.97;1.98;;;7.70;99.90;;;;;;4950761;28;20589;-77
2021/05/05 01:25:35;;;;;;;2.50;1.88;;;7.60;99.90;;;;;;4963332;28;20224;-77
2021/05/05 01:28:02;;;;;;;2.42;2.22;;;7.60;99.90;;;;;;4966585;28;20658;-77
2021/05/05 01:30:29;;;;;;;2.80;2.50;;;7.60;99.90;;;;;;4972881;28;20194;-77
2021/05/05 01:32:56;;;;;;;2.65;2.00;;;7.70;99.90;;;;;;4973243;28;20226;-77
2021/05/05 01:35:25;;;;;;;3.45;2.03;;;7.70;99.90;;;;;;4957901;28;20190;-77
2021/05/05 01:37:52;;;;;;;3.40;2.63;;;7.70;99.90;;;;;;4954561;28;20222;-77
2021/05/05 01:40:26;;;;;;;4.57;2.47;;;7.70;99.90;;;;;;4964929;28;20191;-77
2021/05/05 01:42:53;;;;;;;4.03;2.53;;;7.80;99.90;;;;;;4980240;28;20222;-77
2021/05/05 01:45:20;;;;;;;2.92;2.58;;;7.80;99.90;;;;;;4956906;28;20190;-77
2021/05/05 01:47:47;;;;;;;4.32;2.65;;;7.80;99.90;;;;;;4981350;28;20215;-77
2021/05/05 01:50:14;;;;;;;3.10;2.28;;;7.80;99.90;;;;;;4957005;28;20190;-76
2021/05/05 01:52:41;;;;;;;3.50;2.90;;;7.80;99.90;;;;;;4982029;28;20247;-77
2021/05/05 01:55:09;;;;;;;7.78;3.22;;;7.80;99.90;;;;;;4979618;28;20548;-76
2021/05/05 01:57:39;;;;;;;9.75;3.53;;;7.80;99.90;;;;;;4954252;28;20223;-77
2021/05/05 02:00:12;;;;;;;6.82;3.20;;;7.70;99.90;;;;;;4941082;28;20191;-77
2021/05/05 02:02:51;;;;;;;6.55;4.45;;;7.70;99.90;;;;;;4965288;28;20218;-77
2021/05/05 02:05:24;;;;;;;5.97;2.50;;;7.60;99.90;;;;;;4960832;28;20203;-77
2021/05/05 02:08:12;;;;;;;3.88;2.13;;;7.60;99.90;;;;;;4970082;28;20681;-77
2021/05/05 02:10:40;;;;;;;9.07;3.67;;;7.70;99.90;;;;;;4975442;28;20570;-77
2021/05/05 02:13:07;;;;;;;7.55;3.40;;;7.70;99.90;;;;;;4991761;28;20300;-76
2021/05/05 02:15:34;;;;;;;8.80;3.78;;;7.70;99.90;;;;;;4957968;28;20218;-77
2021/05/05 02:18:02;;;;;;;6.65;2.92;;;7.70;99.90;;;;;;4991863;28;20217;-77
2021/05/05 02:20:30;;;;;;;4.95;3.28;;;7.70;99.90;;;;;;4974665;28;20568;-77
2021/05/05 02:22:59;;;;;;;5.53;3.05;;;7.70;99.90;;;;;;4961395;28;20225;-77
2021/05/05 02:25:26;;;;;;;4.68;2.85;;;7.70;99.90;;;;;;4964353;28;20649;-77
2021/05/05 02:27:56;;;;;;;10.93;3.47;;;7.70;99.90;;;;;;4958973;28;20313;-77
2021/05/05 02:30:29;;;;;;;9.60;3.22;;;7.70;99.90;;;;;;4973030;28;20206;-77
2021/05/05 02:33:00;;;;;;;5.90;3.58;;;7.70;99.90;;;;;;4956372;28;20215;-77
2021/05/05 02:35:27;;;;;;;9.88;3.20;;;7.70;99.90;;;;;;4985308;28;20575;-77
2021/05/05 02:37:56;;;;;;;9.90;3.42;;;7.70;99.90;;;;;;4953456;28;20218;-77
2021/05/05 02:40:24;;;;;;;7.55;3.35;;;7.60;99.90;;;;;;4955536;28;20206;-77
2021/05/05 02:42:53;;;;;;;6.40;2.80;;;7.70;99.90;;;;;;4942656;28;20223;-77
2021/05/05 02:45:19;;;;;;;8.98;3.83;;;7.60;99.90;;;;;;4980961;28;20233;-77
2021/05/05 02:47:46;;;;;;;12.30;4.00;;;7.70;99.90;;;;;;4958205;28;20229;-77
2021/05/05 02:50:13;;;;;;;6.70;3.40;;;7.70;99.90;;;;;;4955842;28;20234;-77
2021/05/05 02:52:40;;;;;;;8.52;3.13;;;7.70;99.90;;;;;;4990932;28;20327;-77
2021/05/05 02:55:10;;;;;;;8.05;3.70;;;7.70;99.90;;;;;;4974027;28;20277;-77
2021/05/05 02:57:38;;;;;;;7.72;3.40;;;7.80;99.90;;;;;;4957413;28;20218;-77
2021/05/05 03:00:10;;;;;;;9.93;3.50;;;7.80;99.90;;;;;;4968728;28;20274;-77
2021/05/05 03:02:37;;;;;;;6.63;3.25;;;7.80;99.90;;;;;;4956000;28;20218;-77
2021/05/05 03:05:07;;;;;;;13.48;4.20;;;7.80;99.90;;;;;;4998797;28;20280;-77
2021/05/05 03:07:36;;;;;;;7.63;4.65;;;7.80;99.90;;;;;;4999280;28;20246;-77
2021/05/05 03:10:05;;;;;;;11.02;3.95;;;7.70;99.90;;;;;;4974211;28;20225;-77
2021/05/05 03:12:31;;;;;;;19.75;5.20;;;7.70;99.90;;;;;;4963002;28;20211;-77
2021/05/05 03:14:58;;;;;;;10.13;3.72;;;7.70;99.90;;;;;;4944518;28;20282;-76
2021/05/05 03:17:24;;;;;;;9.93;4.38;;;7.70;99.90;;;;;;4982057;28;20282;-77
2021/05/05 03:19:51;;;;;;;11.35;4.10;;;7.70;99.90;;;;;;4966706;28;20191;-77
2021/05/05 03:22:19;;;;;;;8.80;4.60;;;7.70;99.90;;;;;;4974106;28;20558;-77
2021/05/05 03:24:46;;;;;;;16.35;4.82;;;7.60;99.90;;;;;;4989908;28;20203;-77
2021/05/05 03:27:12;;;;;;;8.75;5.53;;;7.60;99.90;;;;;;4991711;28;20766;-77
2021/05/05 03:29:39;;;;;;;8.27;4.55;;;7.60;99.90;;;;;;4974414;28;20269;-77
2021/05/05 03:32:05;;;;;;;15.73;6.35;;;7.60;99.90;;;;;;4976089;28;20211;-77
2021/05/05 03:34:32;;;;;;;7.90;5.05;;;7.60;99.90;;;;;;4959225;28;20278;-77
2021/05/05 03:36:59;;;;;;;9.77;4.68;;;7.60;99.90;;;;;;4979553;28;20229;-76
2021/05/05 03:39:25;;;;;;;6.15;4.38;;;7.60;99.90;;;;;;4978540;28;20574;-76
2021/05/05 03:41:51;;;;;;;8.63;4.57;;;7.60;99.90;;;;;;4992433;28;20716;-77
2021/05/05 03:44:22;;;;;;;7.95;4.88;;;7.60;99.90;;;;;;4993759;28;20228;-77
2021/05/05 03:46:49;;;;;;;13.43;5.20;;;7.60;99.90;;;;;;4958427;28;20693;-77
2021/05/05 03:49:15;;;;;;;9.27;4.00;;;7.60;99.90;;;;;;4990910;28;20218;-76
2021/05/05 03:51:42;;;;;;;7.65;4.28;;;7.50;99.90;;;;;;4986342;28;20687;-77
2021/05/05 03:54:08;;;;;;;13.43;5.03;;;7.50;99.90;;;;;;4978331;28;20219;-76
2021/05/05 03:56:35;;;;;;;8.18;4.45;;;7.50;99.90;;;;;;4989682;28;20214;-77
2021/05/05 03:59:01;;;;;;;12.18;4.53;;;7.50;99.90;;;;;;4963202;28;20468;-76
2021/05/05 04:01:33;;;;;;;9.27;4.40;;;7.40;99.90;;;;;;4977224;28;20249;-77
2021/05/05 04:03:59;;;;;;;8.55;5.07;;;7.50;99.90;;;;;;4971331;28;20214;-76
2021/05/05 04:06:26;;;;;;;7.93;4.13;;;7.50;99.90;;;;;;4960738;28;20274;-77
2021/05/05 04:08:52;;;;;;;9.63;4.20;;;7.50;99.90;;;;;;4993889;28;20576;-77
2021/05/05 04:11:19;;;;;;;9.43;4.63;;;7.50;99.90;;;;;;4993825;28;20269;-77
2021/05/05 04:13:47;;;;;;;7.68;4.25;;;7.50;99.90;;;;;;4992784;28;20684;-77
2021/05/05 04:16:31;;;;;;;9.77;4.10;;;7.50;99.90;;;;;;4961209;28;20685;-76
2021/05/05 04:19:15;;;;;;;10.63;4.05;;;7.60;99.90;;;;;;4955770;28;20210;-77
2021/05/05 04:22:01;;;;;;;10.55;4.63;;;7.60;99.90;;;;;;4961703;28;20190;-77
2021/05/05 04:24:46;;;;;;;8.57;3.95;;;7.60;99.90;;;;;;4947650;28;20206;-76
2021/05/05 04:27:14;;;;;;;7.93;4.07;;;7.60;99.90;;;;;;4976567;28;20221;-77
2021/05/05 04:29:42;;;;;;;12.90;4.40;;;7.70;99.90;;;;;;4976269;28;20257;-77
2021/05/05 04:32:13;;;;;;;8.63;4.72;;;7.60;99.90;;;;;;4970107;28;20197;-77
2021/05/05 04:34:40;;;;;;;8.85;4.57;;;7.60;99.90;;;;;;4977110;28;20298;-76
2021/05/05 04:37:08;;;;;;;11.55;4.72;;;7.60;99.90;;;;;;4979587;28;20771;-77
2021/05/05 04:39:35;;;;;;;7.88;4.53;;;7.70;99.90;;;;;;4983347;28;20583;-78
2021/05/05 04:42:05;;;;;;;11.88;4.80;;;7.70;99.90;;;;;;4963007;28;20264;-78
2021/05/05 04:44:34;;;;;;;10.70;4.65;;;7.80;99.90;;;;;;4976117;28;20223;-78
2021/05/05 04:47:04;;;;;;;8.50;4.50;;;7.70;99.90;;;;;;4988432;28;20213;-78
2021/05/05 04:49:30;;;;;;;5.43;3.88;;;7.70;99.90;;;;;;4956755;28;20223;-77
2021/05/05 04:51:57;;;;;;;5.53;4.22;;;7.60;99.90;;;;;;4958605;28;20673;-78
2021/05/05 04:54:23;;;;;;;5.93;4.30;;;7.50;99.90;;;;;;4941494;28;20219;-78
2021/05/05 04:56:50;;;;;;;5.70;4.95;;;7.40;99.90;;;;;;4976795;28;20261;-80
2021/05/05 04:59:17;;;;;;;7.97;6.15;;;7.30;99.90;;;;;;4968701;28;20217;-80
2021/05/05 05:01:44;;;;;;;6.13;5.55;;;7.20;99.90;;;;;;4963903;28;20249;-79
2021/05/05 05:04:10;;;;;;;8.77;6.65;;;7.10;99.90;;;;;;4973170;28;20210;-79
2021/05/05 05:06:39;;;;;;;7.47;6.30;;;6.90;99.90;;;;;;4984613;28;20209;-79
2021/05/05 05:09:06;;;;;;;8.73;7.07;;;6.80;99.90;;;;;;4987123;28;20207;-79
2021/05/05 05:11:33;;;;;;;13.48;6.80;;;6.80;99.90;;;;;;4942262;28;20183;-79
2021/05/05 05:14:02;;;;;;;9.88;7.13;;;6.80;99.90;;;;;;4985550;28;20250;-79
2021/05/05 05:16:29;;;;;;;11.73;6.85;;;6.80;99.90;;;;;;4974931;28;20234;-79
2021/05/05 05:18:56;;;;;;;8.75;6.45;;;6.80;99.90;;;;;;4986058;28;20656;-79
2021/05/05 05:21:23;;;;;;;13.23;6.70;;;6.80;99.90;;;;;;4951038;28;20202;-79
2021/05/05 05:23:54;;;;;;;17.17;7.30;;;6.90;99.90;;;;;;4973467;28;20259;-78
2021/05/05 05:26:21;;;;;;;12.43;7.45;;;7.00;99.90;;;;;;4970764;28;20202;-78
2021/05/05 05:28:48;;;;;;;13.73;8.02;;;7.00;99.90;;;;;;4950572;28;20214;-78
2021/05/05 05:31:17;;;;;;;13.20;7.30;;;7.10;99.90;;;;;;4957729;28;20203;-78
2021/05/05 05:33:44;;;;;;;20.48;7.68;;;7.20;99.90;;;;;;4954380;28;20716;-78
2021/05/05 05:36:11;;;;;;;12.23;6.57;;;7.20;99.90;;;;;;4975678;28;20778;-78
2021/05/05 05:38:40;;;;;;;14.07;7.57;;;7.20;99.90;;;;;;4959086;28;20249;-77
2021/05/05 05:41:09;;;;;;;11.30;7.60;;;7.30;99.90;;;;;;4983363;28;20545;-78
2021/05/05 05:43:36;;;;;;;12.73;7.32;;;7.40;99.90;;;;;;4962874;28;20688;-78
2021/05/05 05:46:05;;;;;;;11.00;7.32;;;7.40;99.90;;;;;;4991138;28;20692;-77
2021/05/05 05:48:31;;;;;;;14.82;7.22;;;7.50;99.90;;;;;;4989409;28;20222;-77
2021/05/05 05:50:59;;;;;;;12.02;6.63;;;7.50;99.90;;;;;;4944152;28;20195;-77
2021/05/05 05:53:26;;;;;;;12.43;5.80;;;7.50;99.90;;;;;;4964764;28;20324;-77
2021/05/05 05:55:53;;;;;;;16.15;6.30;;;7.50;99.90;;;;;;4983430;28;20298;-77
2021/05/05 05:58:20;;;;;;;9.32;6.07;;;7.60;99.90;;;;;;4962513;28;20214;-78
2021/05/05 06:00:46;;;;;;;9.10;6.28;;;7.70;99.90;;;;;;4967651;28;20190;-78
2021/05/05 06:03:13;;;;;;;9.20;5.15;;;7.60;99.90;;;;;;4959277;28;20226;-78
2021/05/05 06:05:40;;;;;;;8.23;5.93;;;7.40;99.90;;;;;;4971585;28;20218;-78
2021/05/05 06:08:09;;;;;;;9.43;6.13;;;7.40;99.90;;;;;;4967184;28;20223;-78
2021/05/05 06:10:40;;;;;;;9.45;6.43;;;7.30;99.90;;;;;;4963236;28;20206;-78
2021/05/05 06:13:06;;;;;;;10.68;6.18;;;7.30;99.90;;;;;;4969225;28;20751;-78
2021/05/05 06:15:34;;;;;;;12.38;6.93;;;7.30;99.90;;;;;;4959498;28;20202;-78
2021/05/05 06:18:02;;;;;;;7.68;5.93;;;7.30;99.90;;;;;;4941161;28;20576;-78
2021/05/05 06:20:29;;;;;;;13.13;5.47;;;7.20;99.90;;;;;;4947608;28;20625;-78
2021/05/05 06:22:56;;;;;;;11.07;5.10;;;7.30;99.90;;;;;;4939820;28;20220;-78
2021/05/05 06:25:23;;;;;;;7.15;4.85;;;7.40;99.90;;;;;;4965981;28;20210;-77
2021/05/05 06:27:50;;;;;;;7.75;5.20;;;7.60;99.90;;;;;;4958322;28;20301;-77
2021/05/05 06:30:19;;;;;;;8.40;5.10;;;7.80;99.90;;;;;;4964281;28;20202;-77
2021/05/05 06:32:46;;;;;;;9.73;4.72;;;7.80;99.90;;;;;;4964413;28;20223;-79
2021/05/05 06:35:12;;;;;;;9.50;5.72;;;7.80;99.90;;;;;;4969941;28;20191;-78
2021/05/05 06:37:39;;;;;;;6.85;4.97;;;7.70;99.90;;;;;;4954734;28;20262;-78
2021/05/05 06:40:07;;;;;;;11.00;5.75;;;7.60;99.90;;;;;;4955700;28;20716;-78
2021/05/05 06:42:34;;;;;;;10.30;5.22;;;7.60;99.90;;;;;;4951615;28;20242;-78
2021/05/05 06:45:03;;;;;;;8.18;5.03;;;7.60;99.90;;;;;;4961624;28;20194;-77
2021/05/05 06:47:29;;;;;;;10.00;5.70;;;7.70;99.90;;;;;;4943565;28;20713;-77
2021/05/05 06:49:56;;;;;;;5.88;5.28;;;7.90;99.90;;;;;;4961247;28;20242;-77
2021/05/05 06:52:24;;;;;;;11.43;6.28;;;8.10;99.90;;;;;;4972399;28;20202;-76
2021/05/05 06:54:51;;;;;;;9.30;4.97;;;8.30;99.90;;;;;;4967378;28;20213;-77
2021/05/05 06:57:25;;;;;;;8.13;5.95;;;8.50;99.90;;;;;;4972514;28;20587;-77
2021/05/05 06:59:55;;;;;;;7.25;4.35;;;8.50;99.90;;;;;;4969861;28;20195;-77
2021/05/05 07:02:22;;;;;;;4.93;4.32;;;8.50;99.90;;;;;;4975458;28;20213;-77
2021/05/05 07:04:50;;;;;;;8.30;5.35;;;8.50;99.90;;;;;;4961168;28;20618;-77
2021/05/05 07:07:17;;;;;;;4.72;4.32;;;8.30;99.90;;;;;;4969671;28;20203;-77
2021/05/05 07:09:44;;;;;;;4.57;4.15;;;8.40;99.90;;;;;;4973385;28;20274;-76
2021/05/05 07:12:11;;;;;;;10.02;5.32;;;8.40;99.90;;;;;;4984989;28;20805;-77
2021/05/05 07:14:38;;;;;;;6.38;5.30;;;8.60;99.90;;;;;;4976153;28;20215;-76
2021/05/05 07:17:04;;;;;;;7.13;5.10;;;8.70;99.90;;;;;;4968146;28;20203;-76
2021/05/05 07:19:32;;;;;;;9.57;5.88;;;8.80;99.90;;;;;;4985370;28;20253;-76
2021/05/05 07:21:58;;;;;;;8.05;5.60;;;8.90;99.90;;;;;;4965279;28;20577;-76
2021/05/05 07:24:25;;;;;;;5.60;5.10;;;8.90;99.90;;;;;;4974889;28;20217;-76
2021/05/05 07:26:53;;;;;;;6.07;4.85;;;9.00;99.90;;;;;;4993582;28;20582;-77
2021/05/05 07:29:21;;;;;;;5.72;4.63;;;9.10;99.90;;;;;;4969693;28;20299;-76
2021/05/05 07:31:48;;;;;;;8.93;4.80;;;9.10;99.90;;;;;;4993944;28;20747;-76
2021/05/05 07:34:15;;;;;;;5.60;5.00;;;9.10;99.90;;;;;;4946308;28;20640;-76
2021/05/05 07:36:48;;;;;;;8.57;5.07;;;9.20;99.90;;;;;;4972728;28;20246;-76
2021/05/05 07:44:52;;;;;;;10.15;5.00;;;9.60;99.90;;;;;;4968083;28;20219;-76
2021/05/05 07:47:19;;;;;;;8.63;5.45;;;9.60;99.90;;;;;;4981969;28;20230;-76
2021/05/05 07:49:49;;;;;;;11.10;5.75;;;9.70;99.90;;;;;;4967776;28;20246;-76
2021/05/05 07:52:18;;;;;;;5.28;4.75;;;9.80;99.90;;;;;;4965018;28;20176;-76
2021/05/05 07:54:44;;;;;;;9.40;5.25;;;9.90;99.90;;;;;;4985993;28;20191;-76
2021/05/05 07:57:12;;;;;;;6.68;4.53;;;10.00;99.90;;;;;;4975900;28;20194;-76
2021/05/05 07:59:39;;;;;;;8.65;5.00;;;9.90;99.90;;;;;;4965596;28;20215;-76
2021/05/05 08:02:07;;;;;;;6.13;4.57;;;9.90;99.90;;;;;;4963617;28;20180;-76
2021/05/05 08:04:34;;;;;;;5.57;3.65;;;9.80;99.90;;;;;;4957094;28;20218;-76
2021/05/05 08:07:03;;;;;;;6.72;6.00;;;9.60;99.90;;;;;;4976761;28;20924;-76
2021/05/05 08:09:30;;;;;;;4.80;3.97;;;9.40;99.90;;;;;;4966653;28;20337;-76
2021/05/05 08:12:00;;;;;;;4.22;3.55;;;9.30;99.90;;;;;;4970820;28;20200;-76
2021/05/05 08:14:29;;;;;;;4.50;4.20;;;9.20;99.90;;;;;;4956184;28;20219;-76
2021/05/05 08:16:58;;;;;;;7.78;3.90;;;9.20;99.90;;;;;;4988218;28;20268;-76
2021/05/05 08:19:26;;;;;;;4.60;4.20;;;9.10;99.90;;;;;;4992450;28;20718;-76
2021/05/05 08:21:56;;;;;;;4.63;4.20;;;8.90;99.90;;;;;;4981423;28;20195;-76
2021/05/05 08:24:22;;;;;;;2.95;2.65;;;8.70;99.90;;;;;;4954686;28;20284;-76
2021/05/05 08:26:49;;;;;;;2.38;1.45;;;8.50;99.90;;;;;;4990885;28;20269;-76
2021/05/05 08:29:19;;;;;;;2.60;1.25;;;8.30;99.90;;;;;;4995495;28;20211;-76
2021/05/05 08:31:45;;;;;;;3.88;2.10;;;7.90;99.90;;;;;;4961049;28;20249;-76
2021/05/05 08:34:13;;;;;;;6.90;2.05;;;7.80;99.90;;;;;;4969206;28;20574;-76
2021/05/05 08:36:40;;;;;;;1.65;1.55;;;7.80;99.90;;;;;;4987789;28;20214;-76
2021/05/05 08:39:16;;;;;;;2.95;1.60;;;7.80;99.90;;;;;;4993222;28;20210;-76
2021/05/05 08:41:46;;;;;;;4.25;1.33;;;7.80;99.90;;;;;;4961338;28;20226;-76
2021/05/05 08:44:16;;;;;;;3.03;2.15;;;7.80;99.90;;;;;;4976380;28;20218;-76
2021/05/05 08:46:45;;;;;;;2.63;2.20;;;7.90;99.90;;;;;;4958809;28;20608;-76
2021/05/05 08:49:18;;;;;;;3.13;2.50;;;8.10;99.90;;;;;;4972849;28;20276;-76
2021/05/05 08:51:47;;;;;;;3.35;2.85;;;8.20;99.90;;;;;;4971734;28;20665;-76
2021/05/05 08:54:15;;;;;;;3.78;2.70;;;8.40;99.90;;;;;;4989519;28;20254;-76
2021/05/05 08:56:43;;;;;;;3.28;2.97;;;8.50;99.90;;;;;;4982350;28;20211;-76
2021/05/05 08:59:15;;;;;;;3.30;2.85;;;8.60;99.90;;;;;;4961026;28;20265;-76
2021/05/05 09:01:43;;;;;;;12.43;3.63;;;8.60;99.90;;;;;;4957705;28;20214;-76
2021/05/05 09:04:11;;;;;;;3.17;2.67;;;8.50;99.90;;;;;;4988973;28;20743;-76
2021/05/05 09:06:47;;;;;;;4.22;2.80;;;8.50;99.90;;;;;;4965100;28;20215;-76
2021/05/05 09:09:38;;;;;;;5.22;3.47;;;8.40;99.90;;;;;;4956310;28;20250;-76
2021/05/05 09:12:11;;;;;;;5.65;3.33;;;8.20;99.90;;;;;;4980958;28;20562;-76
2021/05/05 09:14:48;;;;;;;7.55;4.38;;;8.10;99.90;;;;;;4989170;28;20236;-76
2021/05/05 09:17:19;;;;;;;6.15;3.42;;;8.10;99.90;;;;;;4992609;28;20569;-76
2021/05/05 09:19:46;;;;;;;3.90;3.50;;;8.20;99.90;;;;;;4971387;28;20204;-76
2021/05/05 09:22:30;;;;;;;7.90;3.85;;;8.50;99.90;;;;;;4985113;28;20254;-76
2021/05/05 09:24:58;;;;;;;5.03;3.90;;;8.80;99.90;;;;;;4953776;28;20277;-76
2021/05/05 09:27:28;;;;;;;6.38;3.85;;;9.20;99.90;;;;;;4974169;28;20984;-76
2021/05/05 09:29:57;;;;;;;3.90;3.50;;;9.50;99.90;;;;;;4963458;28;20195;-76
2021/05/05 09:32:23;;;;;;;3.47;3.00;;;9.60;99.90;;;;;;4955840;28;20281;-77
2021/05/05 09:35:05;;;;;;;4.18;3.67;;;9.80;99.90;;;;;;4988649;28;20186;-76
2021/05/05 09:37:32;;;;;;;3.45;3.15;;;9.80;99.90;;;;;;4972215;28;20210;-76
2021/05/05 09:40:00;;;;;;;4.45;3.20;;;9.80;99.90;;;;;;4975037;28;20621;-76
2021/05/05 09:42:29;;;;;;;4.38;3.60;;;9.60;99.90;;;;;;4971173;28;20561;-76
2021/05/05 09:45:02;;;;;;;5.32;3.00;;;9.40;99.90;;;;;;4962231;28;20580;-76
2021/05/05 09:47:51;;;;;;;5.53;3.50;;;9.20;99.90;;;;;;4947966;28;20210;-76
2021/05/05 09:50:25;;;;;;;3.20;2.90;;;9.20;99.90;;;;;;4974286;28;20214;-76
2021/05/05 09:53:13;;;;;;;3.58;3.05;;;9.40;99.90;;;;;;4980193;28;20685;-76
2021/05/05 09:56:05;;;;;;;3.75;2.25;;;9.60;99.90;;;;;;4969370;28;20211;-76
2021/05/05 09:58:41;;;;;;;5.68;2.50;;;9.70;99.90;;;;;;4975487;28;20775;-76
2021/05/05 10:01:13;;;;;;;3.58;2.22;;;10.00;99.90;;;;;;4975122;28;20182;-76
2021/05/05 10:03:45;;;;;;;1.92;1.67;;;10.20;99.90;;;;;;4963838;28;20234;-76
2021/05/05 10:06:33;;;;;;;2.45;1.70;;;10.30;99.90;;;;;;4943822;28;20215;-76
2021/05/05 10:09:10;;;;;;;3.65;2.75;;;10.50;99.90;;;;;;4967876;28;20551;-76
2021/05/05 10:11:42;;;;;;;5.07;2.88;;;10.70;99.90;;;;;;4949327;28;20564;-76
2021/05/05 10:14:13;;;;;;;2.78;2.20;;;11.00;99.90;;;;;;4955268;28;20216;-76
2021/05/05 10:16:43;;;;;;;4.60;2.33;;;11.10;99.90;;;;;;4968202;28;20198;-76
2021/05/05 10:19:15;;;;;;;4.93;2.63;;;11.00;99.90;;;;;;4975354;28;20551;-76
2021/05/05 10:22:06;;;;;;;2.67;2.47;;;10.80;99.90;;;;;;4947864;28;20192;-76
2021/05/05 10:24:38;;;;;;;3.22;2.40;;;10.40;99.90;;;;;;4956425;28;20215;-76
2021/05/05 10:27:11;;;;;;;4.35;2.80;;;9.90;99.90;;;;;;4990539;28;20219;-78
2021/05/05 10:29:41;;;;;;;3.63;2.95;;;9.40;99.90;;;;;;4961433;28;20226;-78
2021/05/05 10:32:12;;;;;;;4.07;2.58;;;9.20;99.90;;;;;;4968475;28;20198;-77
2021/05/05 10:34:42;;;;;;;3.08;2.40;;;9.10;99.90;;;;;;4944777;28;20783;-77
2021/05/05 10:37:09;;;;;;;4.22;2.83;;;9.20;99.90;;;;;;4963196;28;20301;-76
2021/05/05 10:39:39;;;;;;;4.20;3.22;;;9.30;99.90;;;;;;4938966;28;20270;-77
2021/05/05 10:42:19;;;;;;;3.65;3.22;;;9.60;99.90;;;;;;4957764;28;20190;-76
2021/05/05 10:44:52;;;;;;;4.10;2.80;;;9.90;99.90;;;;;;4983840;28;20210;-76
2021/05/05 10:47:30;;;;;;;7.32;2.95;;;10.30;99.90;;;;;;4974813;28;20257;-76
2021/05/05 10:50:03;;;;;;;4.72;2.80;;;10.30;99.90;;;;;;4964243;28;20198;-76
2021/05/05 10:52:45;;;;;;;6.97;3.17;;;10.30;99.90;;;;;;4966313;28;20491;-76
2021/05/05 10:55:15;;;;;;;5.70;3.30;;;10.30;99.90;;;;;;4947161;28;20278;-76
2021/05/05 10:58:04;;;;;;;5.15;3.97;;;10.30;99.90;;;;;;4988787;28;20723;-76
2021/05/05 11:00:46;;;;;;;6.10;3.38;;;10.60;99.90;;;;;;4965859;28;20199;-76
2021/05/05 11:03:14;;;;;;;4.57;3.67;;;10.80;99.90;;;;;;4963225;28;20293;-76
2021/05/05 11:05:44;;;;;;;9.85;3.70;;;11.00;99.90;;;;;;4982481;28;20766;-76
2021/05/05 11:08:27;;;;;;;5.10;4.30;;;11.00;99.90;;;;;;4973921;28;20253;-76
2021/05/05 11:10:57;;;;;;;4.55;4.00;;;10.80;99.90;;;;;;4976883;28;20175;-76
2021/05/05 11:13:29;;;;;;;4.80;3.53;;;10.60;99.90;;;;;;4954291;28;20306;-75
2021/05/05 11:15:57;;;;;;;7.97;4.63;;;10.60;99.20;;;;;;4971237;28;20203;-75
2021/05/05 11:18:28;;;;;;;6.55;3.78;;;10.70;99.90;;;;;;4954655;28;20223;-76
2021/05/05 11:20:57;;;;;;;4.80;3.55;;;11.00;99.90;;;;;;4971402;28;20226;-76
2021/05/05 11:23:45;;;;;;;6.80;3.80;;;11.30;99.90;;;;;;4972590;28;20299;-76
2021/05/05 11:26:26;;;;;;;5.55;4.25;;;11.50;97.90;;;;;;4985295;28;20216;-76
2021/05/05 11:29:07;;;;;;;3.67;3.13;;;11.60;96.90;;;;;;4973959;28;20232;-76
2021/05/05 11:31:49;;;;;;;4.30;3.40;;;11.70;94.90;;;;;;4975065;28;20274;-76
2021/05/05 11:34:19;;;;;;;4.78;3.10;;;11.70;95.00;;;;;;4973308;28;20230;-76
2021/05/05 11:36:56;;;;;;;5.30;3.60;;;11.70;95.60;;;;;;4960417;28;20202;-76
2021/05/05 11:39:30;;;;;;;5.50;2.95;;;11.80;96.30;;;;;;4943505;28;20238;-76
2021/05/05 11:42:06;;;;;;;3.87;3.57;;;11.90;94.20;;;;;;4981978;28;20222;-76
2021/05/05 11:44:36;;;;;;;5.32;2.70;;;11.90;93.50;;;;;;4984126;28;20892;-76
2021/05/05 11:47:13;;;;;;;4.47;2.65;;;11.70;92.90;;;;;;4964385;28;20697;-76
2021/05/05 11:49:58;;;;;;;2.80;2.10;;;11.50;92.50;;;;;;4970856;28;20222;-76
2021/05/05 11:52:32;;;;;;;4.75;2.60;;;11.50;92.70;;;;;;4982154;28;20604;-76
2021/05/05 11:55:06;;;;;;;3.20;2.17;;;11.50;92.30;;;;;;4975407;28;20597;-76
2021/05/05 11:57:44;;;;;;;2.80;2.00;;;11.40;92.30;;;;;;4974615;28;20210;-76
2021/05/05 12:00:17;;;;;;;2.45;1.80;;;11.20;90.70;;;;;;4980560;28;20233;-76
2021/05/05 12:02:57;;;;;;;2.60;2.10;;;11.00;90.70;;;;;;4949482;28;20744;-77
2021/05/05 12:05:30;;;;;;;6.22;2.30;;;10.80;91.20;;;;;;4984496;28;20299;-76
2021/05/05 12:08:16;;;;;;;3.20;2.20;;;10.60;92.20;;;;;;4968634;28;20215;-76
2021/05/05 12:10:46;;;;;;;5.10;2.75;;;10.60;91.20;;;;;;4967262;28;20273;-76
2021/05/05 12:13:26;;;;;;;5.30;2.90;;;10.60;93.50;;;;;;4978414;28;20227;-76
2021/05/05 12:16:00;;;;;;;2.30;2.10;;;10.60;93.30;;;;;;4942080;28;20265;-76
2021/05/05 12:18:37;;;;;;;6.65;2.75;;;10.70;93.50;;;;;;4976023;28;20215;-76
2021/05/05 12:21:12;;;;;;;4.03;2.03;;;10.90;93.60;;;;;;4971901;28;20191;-76
2021/05/05 12:23:48;;;;;;;3.65;2.25;;;11.00;92.00;;;;;;4981332;28;20568;-76
2021/05/05 12:26:22;;;;;;;9.23;2.70;;;11.10;91.60;;;;;;4974326;28;20273;-76
2021/05/05 12:28:51;;;;;;;5.20;2.20;;;11.30;92.40;;;;;;4955216;28;20588;-76
2021/05/05 12:31:20;;;;;;;3.77;2.27;;;11.60;91.60;;;;;;4966462;28;20450;-76
2021/05/05 12:33:48;;;;;;;5.57;2.97;;;12.00;90.80;;;;;;4957423;28;20477;-76
2021/05/05 12:36:20;;;;;;;4.50;2.60;;;12.20;85.50;;;;;;4976632;28;20972;-76
2021/05/05 12:38:52;;;;;;;4.20;2.70;;;12.50;83.40;;;;;;4980389;28;20462;-76
2021/05/05 12:41:40;;;;;;;3.07;2.30;;;12.50;82.90;;;;;;4970740;28;20437;-76
2021/05/05 12:44:07;;;;;;;4.43;2.90;;;12.70;83.50;;;;;;4981907;28;20472;-76
2021/05/05 12:49:57;;;;;;;3.20;2.40;;;12.70;78.70;;;;;;4957500;28;20475;-76
2021/05/05 12:52:34;;;;;;;3.27;2.53;;;12.40;81.00;;;;;;4942634;28;20191;-76
2021/05/05 12:55:28;;;;;;;2.75;1.73;;;12.20;84.80;;;;;;4971854;28;20500;-76
2021/05/05 12:58:06;;;;;;;4.32;1.55;;;11.80;70.00;;;;;;4987078;28;20314;-76
2021/05/05 13:00:33;;;;;;;2.97;1.20;;;11.70;68.00;;;;;;4958787;28;20196;-76
2021/05/05 13:03:20;;;;;;;6.10;1.65;;;11.70;64.80;;;;;;4970404;28;20223;-76
2021/05/05 13:06:04;;;;;;;4.17;1.60;;;11.90;63.80;;;;;;4975192;28;20225;-76
2021/05/05 13:08:53;;;;;;;3.60;1.20;;;12.10;61.70;;;;;;4974917;28;20480;-76
2021/05/05 13:11:41;;;;;;;3.90;1.67;;;12.40;61.90;;;;;;4985014;28;20446;-76
2021/05/05 13:14:18;;;;;;;3.40;2.10;;;12.40;63.50;;;;;;4981749;28;20539;-76
2021/05/05 13:17:08;;;;;;;4.37;1.87;;;12.40;65.30;;;;;;4975574;28;20480;-76
2021/05/05 13:34:15;;;;;;;4.60;2.60;;;12.60;69.70;;;;;;4913516;29;20480;-76